sensor_id;sensor_type;location;lat;lon;timestamp;P1;durP1;ratioP1;P2;durP2;ratioP2
5343;SDS011;2694;48.950;8.970;2022-07-29T00:00:04;7.00;;;3.90;;
5343;SDS011;2694;48.950;8.970;2022-07-29T00:02:32;6.43;;;4.05;;
5343;SDS011;2694;48.950;8.970;2022-07-29T00:04:59;8.02;;;4.07;;
5343;SDS011;2694;48.950;8.970;2022-07-29T00:07:26;7.90;;;3.60;;
5343;SDS011;2694;48.950;8.970;2022-07-29T00:09:53;7.05;;;3.65;;
5343;SDS011;2694;48.950;8.970;2022-07-29T00:12:22;3.90;;;3.35;;
5343;SDS011;2694;48.950;8.970;2022-07-29T00:14:50;6.82;;;4.05;;
5343;SDS011;2694;48.950;8.970;2022-07-29T00:17:17;6.38;;;3.58;;
5343;SDS011;2694;48.950;8.970;2022-07-29T00:19:44;8.65;;;3.90;;
5343;SDS011;2694;48.950;8.970;2022-07-29T00:22:11;6.55;;;4.00;;
5343;SDS011;2694;48.950;8.970;2022-07-29T00:24:37;6.18;;;3.90;;
5343;SDS011;2694;48.950;8.970;2022-07-29T00:27:04;6.50;;;3.67;;
5343;SDS011;2694;48.950;8.970;2022-07-29T00:29:32;4.35;;;3.30;;
5343;SDS011;2694;48.950;8.970;2022-07-29T00:31:59;6.55;;;3.70;;
5343;SDS011;2694;48.950;8.970;2022-07-29T00:34:26;4.15;;;3.13;;
5343;SDS011;2694;48.950;8.970;2022-07-29T00:37:10;5.30;;;3.63;;
5343;SDS011;2694;48.950;8.970;2022-07-29T00:39:37;5.22;;;3.65;;
5343;SDS011;2694;48.950;8.970;2022-07-29T00:42:04;5.88;;;3.70;;
5343;SDS011;2694;48.950;8.970;2022-07-29T00:44:36;8.20;;;3.72;;
5343;SDS011;2694;48.950;8.970;2022-07-29T00:47:03;5.30;;;3.33;;
5343;SDS011;2694;48.950;8.970;2022-07-29T00:49:31;4.88;;;3.70;;
5343;SDS011;2694;48.950;8.970;2022-07-29T00:51:58;10.88;;;4.13;;
5343;SDS011;2694;48.950;8.970;2022-07-29T00:54:26;6.30;;;3.80;;
5343;SDS011;2694;48.950;8.970;2022-07-29T00:56:54;6.85;;;3.40;;
5343;SDS011;2694;48.950;8.970;2022-07-29T00:59:22;4.93;;;3.60;;
5343;SDS011;2694;48.950;8.970;2022-07-29T01:01:50;7.70;;;4.20;;
5343;SDS011;2694;48.950;8.970;2022-07-29T01:04:17;9.30;;;4.05;;
5343;SDS011;2694;48.950;8.970;2022-07-29T01:06:44;5.97;;;3.72;;
5343;SDS011;2694;48.950;8.970;2022-07-29T01:09:12;5.13;;;3.80;;
5343;SDS011;2694;48.950;8.970;2022-07-29T01:11:39;6.65;;;3.92;;
5343;SDS011;2694;48.950;8.970;2022-07-29T01:14:07;4.65;;;3.53;;
5343;SDS011;2694;48.950;8.970;2022-07-29T01:16:36;4.88;;;4.10;;
5343;SDS011;2694;48.950;8.970;2022-07-29T01:19:18;5.47;;;3.70;;
5343;SDS011;2694;48.950;8.970;2022-07-29T01:22:02;4.63;;;3.92;;
5343;SDS011;2694;48.950;8.970;2022-07-29T01:24:48;7.00;;;4.22;;
5343;SDS011;2694;48.950;8.970;2022-07-29T01:27:38;5.30;;;4.00;;
5343;SDS011;2694;48.950;8.970;2022-07-29T01:30:15;6.25;;;4.20;;
5343;SDS011;2694;48.950;8.970;2022-07-29T01:32:42;10.70;;;4.13;;
5343;SDS011;2694;48.950;8.970;2022-07-29T01:35:15;6.28;;;3.60;;
5343;SDS011;2694;48.950;8.970;2022-07-29T01:37:46;6.40;;;4.10;;
5343;SDS011;2694;48.950;8.970;2022-07-29T01:40:19;7.10;;;4.10;;
5343;SDS011;2694;48.950;8.970;2022-07-29T01:42:49;8.10;;;4.13;;
5343;SDS011;2694;48.950;8.970;2022-07-29T01:45:21;8.32;;;4.45;;
5343;SDS011;2694;48.950;8.970;2022-07-29T01:47:54;7.37;;;4.40;;
5343;SDS011;2694;48.950;8.970;2022-07-29T01:50:28;6.10;;;4.33;;
5343;SDS011;2694;48.950;8.970;2022-07-29T01:53:01;5.10;;;3.90;;
5343;SDS011;2694;48.950;8.970;2022-07-29T01:55:32;6.80;;;4.07;;
5343;SDS011;2694;48.950;8.970;2022-07-29T01:58:03;6.18;;;4.57;;
5343;SDS011;2694;48.950;8.970;2022-07-29T02:00:33;5.75;;;4.03;;
5343;SDS011;2694;48.950;8.970;2022-07-29T02:03:02;5.93;;;3.80;;
5343;SDS011;2694;48.950;8.970;2022-07-29T02:05:33;6.10;;;4.50;;
5343;SDS011;2694;48.950;8.970;2022-07-29T02:08:02;8.07;;;4.35;;
5343;SDS011;2694;48.950;8.970;2022-07-29T02:10:31;7.22;;;4.75;;
5343;SDS011;2694;48.950;8.970;2022-07-29T02:13:00;6.45;;;4.32;;
5343;SDS011;2694;48.950;8.970;2022-07-29T02:15:29;7.13;;;4.60;;
5343;SDS011;2694;48.950;8.970;2022-07-29T02:18:01;8.57;;;4.70;;
5343;SDS011;2694;48.950;8.970;2022-07-29T02:20:32;7.78;;;5.03;;
5343;SDS011;2694;48.950;8.970;2022-07-29T02:23:00;6.70;;;4.70;;
5343;SDS011;2694;48.950;8.970;2022-07-29T02:25:28;6.70;;;4.53;;
5343;SDS011;2694;48.950;8.970;2022-07-29T02:27:55;9.13;;;5.05;;
5343;SDS011;2694;48.950;8.970;2022-07-29T02:30:23;7.03;;;4.57;;
5343;SDS011;2694;48.950;8.970;2022-07-29T02:32:53;8.38;;;4.57;;
5343;SDS011;2694;48.950;8.970;2022-07-29T02:35:22;5.68;;;3.83;;
5343;SDS011;2694;48.950;8.970;2022-07-29T02:37:50;5.80;;;4.63;;
5343;SDS011;2694;48.950;8.970;2022-07-29T02:40:33;8.85;;;4.70;;
5343;SDS011;2694;48.950;8.970;2022-07-29T02:43:03;5.80;;;4.55;;
5343;SDS011;2694;48.950;8.970;2022-07-29T02:45:32;6.72;;;5.50;;
5343;SDS011;2694;48.950;8.970;2022-07-29T02:48:00;8.70;;;5.13;;
5343;SDS011;2694;48.950;8.970;2022-07-29T02:50:34;8.85;;;5.30;;
5343;SDS011;2694;48.950;8.970;2022-07-29T02:53:05;7.47;;;5.30;;
5343;SDS011;2694;48.950;8.970;2022-07-29T02:55:40;5.63;;;4.50;;
5343;SDS011;2694;48.950;8.970;2022-07-29T02:58:12;8.85;;;4.90;;
5343;SDS011;2694;48.950;8.970;2022-07-29T03:00:43;7.97;;;4.55;;
5343;SDS011;2694;48.950;8.970;2022-07-29T03:03:14;7.90;;;4.88;;
5343;SDS011;2694;48.950;8.970;2022-07-29T03:05:44;7.95;;;4.40;;
5343;SDS011;2694;48.950;8.970;2022-07-29T03:08:11;7.95;;;4.93;;
5343;SDS011;2694;48.950;8.970;2022-07-29T03:10:44;6.70;;;4.50;;
5343;SDS011;2694;48.950;8.970;2022-07-29T03:13:12;6.50;;;4.40;;
5343;SDS011;2694;48.950;8.970;2022-07-29T03:15:41;9.93;;;5.07;;
5343;SDS011;2694;48.950;8.970;2022-07-29T03:18:09;7.53;;;5.00;;
5343;SDS011;2694;48.950;8.970;2022-07-29T03:20:37;6.90;;;5.43;;
5343;SDS011;2694;48.950;8.970;2022-07-29T03:23:05;7.70;;;4.97;;
5343;SDS011;2694;48.950;8.970;2022-07-29T03:25:32;7.78;;;5.07;;
5343;SDS011;2694;48.950;8.970;2022-07-29T03:27:59;11.23;;;5.80;;
5343;SDS011;2694;48.950;8.970;2022-07-29T03:30:26;8.07;;;5.70;;
5343;SDS011;2694;48.950;8.970;2022-07-29T03:32:55;11.00;;;5.70;;
5343;SDS011;2694;48.950;8.970;2022-07-29T03:35:22;9.20;;;6.00;;
5343;SDS011;2694;48.950;8.970;2022-07-29T03:37:49;8.85;;;5.82;;
5343;SDS011;2694;48.950;8.970;2022-07-29T03:40:18;9.15;;;6.38;;
5343;SDS011;2694;48.950;8.970;2022-07-29T03:42:48;6.70;;;4.93;;
5343;SDS011;2694;48.950;8.970;2022-07-29T03:45:17;6.53;;;4.90;;
5343;SDS011;2694;48.950;8.970;2022-07-29T03:47:47;5.33;;;4.30;;
5343;SDS011;2694;48.950;8.970;2022-07-29T03:50:18;6.25;;;3.80;;
5343;SDS011;2694;48.950;8.970;2022-07-29T03:52:47;6.53;;;4.00;;
5343;SDS011;2694;48.950;8.970;2022-07-29T03:55:15;9.32;;;4.00;;
5343;SDS011;2694;48.950;8.970;2022-07-29T03:57:44;6.28;;;3.53;;
5343;SDS011;2694;48.950;8.970;2022-07-29T04:00:12;8.40;;;4.70;;
5343;SDS011;2694;48.950;8.970;2022-07-29T04:02:41;7.07;;;4.18;;
5343;SDS011;2694;48.950;8.970;2022-07-29T04:05:12;6.68;;;3.30;;
5343;SDS011;2694;48.950;8.970;2022-07-29T04:07:39;4.77;;;3.67;;
5343;SDS011;2694;48.950;8.970;2022-07-29T04:10:06;6.38;;;3.80;;
5343;SDS011;2694;48.950;8.970;2022-07-29T04:12:35;6.53;;;4.20;;
5343;SDS011;2694;48.950;8.970;2022-07-29T04:15:02;5.70;;;4.00;;
5343;SDS011;2694;48.950;8.970;2022-07-29T04:17:29;7.10;;;4.35;;
5343;SDS011;2694;48.950;8.970;2022-07-29T04:19:56;6.50;;;3.90;;
5343;SDS011;2694;48.950;8.970;2022-07-29T04:22:23;5.93;;;4.40;;
5343;SDS011;2694;48.950;8.970;2022-07-29T04:24:50;6.03;;;4.07;;
5343;SDS011;2694;48.950;8.970;2022-07-29T04:27:17;5.50;;;4.00;;
5343;SDS011;2694;48.950;8.970;2022-07-29T04:29:45;5.90;;;4.10;;
5343;SDS011;2694;48.950;8.970;2022-07-29T04:32:12;4.65;;;3.65;;
5343;SDS011;2694;48.950;8.970;2022-07-29T04:34:39;5.43;;;3.90;;
5343;SDS011;2694;48.950;8.970;2022-07-29T04:37:06;7.20;;;4.20;;
5343;SDS011;2694;48.950;8.970;2022-07-29T04:39:32;10.88;;;5.90;;
5343;SDS011;2694;48.950;8.970;2022-07-29T04:41:59;6.00;;;3.53;;
5343;SDS011;2694;48.950;8.970;2022-07-29T04:44:26;5.03;;;3.63;;
5343;SDS011;2694;48.950;8.970;2022-07-29T04:46:55;5.05;;;3.70;;
5343;SDS011;2694;48.950;8.970;2022-07-29T04:49:22;6.25;;;3.55;;
5343;SDS011;2694;48.950;8.970;2022-07-29T04:51:49;8.38;;;4.00;;
5343;SDS011;2694;48.950;8.970;2022-07-29T04:54:16;7.38;;;3.80;;
5343;SDS011;2694;48.950;8.970;2022-07-29T04:56:43;10.00;;;4.00;;
5343;SDS011;2694;48.950;8.970;2022-07-29T04:59:11;4.93;;;3.47;;
5343;SDS011;2694;48.950;8.970;2022-07-29T05:01:38;8.63;;;3.65;;
5343;SDS011;2694;48.950;8.970;2022-07-29T05:04:06;6.68;;;4.60;;
5343;SDS011;2694;48.950;8.970;2022-07-29T05:06:33;5.13;;;3.67;;
5343;SDS011;2694;48.950;8.970;2022-07-29T05:09:00;6.55;;;3.70;;
5343;SDS011;2694;48.950;8.970;2022-07-29T05:11:26;8.52;;;4.40;;
5343;SDS011;2694;48.950;8.970;2022-07-29T05:13:53;6.03;;;3.70;;
5343;SDS011;2694;48.950;8.970;2022-07-29T05:16:20;4.20;;;3.45;;
5343;SDS011;2694;48.950;8.970;2022-07-29T05:18:47;4.45;;;3.58;;
5343;SDS011;2694;48.950;8.970;2022-07-29T05:21:15;6.60;;;4.32;;
5343;SDS011;2694;48.950;8.970;2022-07-29T05:23:42;9.27;;;4.60;;
5343;SDS011;2694;48.950;8.970;2022-07-29T05:26:08;8.73;;;4.70;;
5343;SDS011;2694;48.950;8.970;2022-07-29T05:28:35;7.30;;;5.15;;
5343;SDS011;2694;48.950;8.970;2022-07-29T05:31:02;10.68;;;5.38;;
5343;SDS011;2694;48.950;8.970;2022-07-29T05:33:29;7.65;;;5.18;;
5343;SDS011;2694;48.950;8.970;2022-07-29T05:35:57;11.10;;;5.50;;
5343;SDS011;2694;48.950;8.970;2022-07-29T05:38:25;8.43;;;4.88;;
5343;SDS011;2694;48.950;8.970;2022-07-29T05:40:51;7.67;;;5.40;;
5343;SDS011;2694;48.950;8.970;2022-07-29T05:43:18;7.03;;;5.40;;
5343;SDS011;2694;48.950;8.970;2022-07-29T05:45:45;9.43;;;5.85;;
5343;SDS011;2694;48.950;8.970;2022-07-29T05:48:12;6.18;;;5.18;;
5343;SDS011;2694;48.950;8.970;2022-07-29T05:50:39;7.32;;;5.00;;
5343;SDS011;2694;48.950;8.970;2022-07-29T05:53:06;7.32;;;4.70;;
5343;SDS011;2694;48.950;8.970;2022-07-29T05:55:34;8.55;;;4.32;;
5343;SDS011;2694;48.950;8.970;2022-07-29T05:58:01;6.55;;;4.55;;
5343;SDS011;2694;48.950;8.970;2022-07-29T06:00:28;7.75;;;4.47;;
5343;SDS011;2694;48.950;8.970;2022-07-29T06:02:55;7.72;;;4.55;;
5343;SDS011;2694;48.950;8.970;2022-07-29T06:05:22;6.43;;;4.60;;
5343;SDS011;2694;48.950;8.970;2022-07-29T06:07:49;7.65;;;3.85;;
5343;SDS011;2694;48.950;8.970;2022-07-29T06:10:15;8.33;;;4.73;;
5343;SDS011;2694;48.950;8.970;2022-07-29T06:12:44;8.75;;;4.00;;
5343;SDS011;2694;48.950;8.970;2022-07-29T06:15:11;6.78;;;4.30;;
5343;SDS011;2694;48.950;8.970;2022-07-29T06:17:37;4.65;;;4.22;;
5343;SDS011;2694;48.950;8.970;2022-07-29T06:20:05;7.80;;;4.50;;
5343;SDS011;2694;48.950;8.970;2022-07-29T06:22:32;7.10;;;4.47;;
5343;SDS011;2694;48.950;8.970;2022-07-29T06:24:59;7.18;;;3.80;;
5343;SDS011;2694;48.950;8.970;2022-07-29T06:27:27;7.17;;;4.60;;
5343;SDS011;2694;48.950;8.970;2022-07-29T06:29:56;6.30;;;4.00;;
5343;SDS011;2694;48.950;8.970;2022-07-29T06:32:23;6.07;;;3.78;;
5343;SDS011;2694;48.950;8.970;2022-07-29T06:34:50;6.43;;;3.50;;
5343;SDS011;2694;48.950;8.970;2022-07-29T06:37:17;5.57;;;3.70;;
5343;SDS011;2694;48.950;8.970;2022-07-29T06:39:44;5.15;;;4.00;;
5343;SDS011;2694;48.950;8.970;2022-07-29T06:42:11;8.82;;;4.45;;
5343;SDS011;2694;48.950;8.970;2022-07-29T06:44:37;5.90;;;3.67;;
5343;SDS011;2694;48.950;8.970;2022-07-29T06:47:05;10.00;;;4.40;;
5343;SDS011;2694;48.950;8.970;2022-07-29T06:49:33;10.10;;;4.60;;
5343;SDS011;2694;48.950;8.970;2022-07-29T06:52:00;8.48;;;4.32;;
5343;SDS011;2694;48.950;8.970;2022-07-29T06:54:27;6.30;;;4.00;;
5343;SDS011;2694;48.950;8.970;2022-07-29T06:56:53;6.35;;;3.90;;
5343;SDS011;2694;48.950;8.970;2022-07-29T06:59:20;5.72;;;2.72;;
5343;SDS011;2694;48.950;8.970;2022-07-29T07:01:47;5.57;;;3.40;;
5343;SDS011;2694;48.950;8.970;2022-07-29T07:04:15;5.45;;;3.10;;
5343;SDS011;2694;48.950;8.970;2022-07-29T07:06:42;6.00;;;2.90;;
5343;SDS011;2694;48.950;8.970;2022-07-29T07:09:08;4.80;;;3.13;;
5343;SDS011;2694;48.950;8.970;2022-07-29T07:11:35;4.90;;;3.28;;
5343;SDS011;2694;48.950;8.970;2022-07-29T07:14:02;3.30;;;2.40;;
5343;SDS011;2694;48.950;8.970;2022-07-29T07:16:29;6.13;;;2.95;;
5343;SDS011;2694;48.950;8.970;2022-07-29T07:18:56;4.65;;;2.65;;
5343;SDS011;2694;48.950;8.970;2022-07-29T07:21:24;3.90;;;3.07;;
5343;SDS011;2694;48.950;8.970;2022-07-29T07:23:51;4.80;;;2.83;;
5343;SDS011;2694;48.950;8.970;2022-07-29T07:26:18;5.73;;;2.80;;
5343;SDS011;2694;48.950;8.970;2022-07-29T07:28:44;4.53;;;2.75;;
5343;SDS011;2694;48.950;8.970;2022-07-29T07:31:11;6.13;;;2.70;;
5343;SDS011;2694;48.950;8.970;2022-07-29T07:33:39;6.78;;;2.55;;
5343;SDS011;2694;48.950;8.970;2022-07-29T07:36:06;7.73;;;3.40;;
5343;SDS011;2694;48.950;8.970;2022-07-29T07:38:34;5.47;;;2.70;;
5343;SDS011;2694;48.950;8.970;2022-07-29T07:41:01;5.30;;;2.77;;
5343;SDS011;2694;48.950;8.970;2022-07-29T07:43:28;6.05;;;2.38;;
5343;SDS011;2694;48.950;8.970;2022-07-29T07:45:54;5.45;;;2.45;;
5343;SDS011;2694;48.950;8.970;2022-07-29T07:48:21;6.00;;;2.70;;
5343;SDS011;2694;48.950;8.970;2022-07-29T07:50:48;5.60;;;2.67;;
5343;SDS011;2694;48.950;8.970;2022-07-29T07:53:15;6.55;;;2.92;;
5343;SDS011;2694;48.950;8.970;2022-07-29T07:55:43;5.60;;;2.85;;
5343;SDS011;2694;48.950;8.970;2022-07-29T07:58:10;8.00;;;3.10;;
5343;SDS011;2694;48.950;8.970;2022-07-29T08:00:37;4.30;;;2.90;;
5343;SDS011;2694;48.950;8.970;2022-07-29T08:03:04;4.57;;;2.90;;
5343;SDS011;2694;48.950;8.970;2022-07-29T08:05:31;4.33;;;2.90;;
5343;SDS011;2694;48.950;8.970;2022-07-29T08:07:58;8.15;;;3.00;;
5343;SDS011;2694;48.950;8.970;2022-07-29T08:10:24;4.03;;;3.05;;
5343;SDS011;2694;48.950;8.970;2022-07-29T08:13:10;4.82;;;2.80;;
5343;SDS011;2694;48.950;8.970;2022-07-29T08:15:38;4.30;;;2.70;;
5343;SDS011;2694;48.950;8.970;2022-07-29T08:18:06;6.28;;;3.00;;
5343;SDS011;2694;48.950;8.970;2022-07-29T08:20:33;4.68;;;2.88;;
5343;SDS011;2694;48.950;8.970;2022-07-29T08:23:01;4.20;;;2.40;;
5343;SDS011;2694;48.950;8.970;2022-07-29T08:25:28;5.90;;;2.75;;
5343;SDS011;2694;48.950;8.970;2022-07-29T08:27:55;4.75;;;2.40;;
5343;SDS011;2694;48.950;8.970;2022-07-29T08:30:23;3.17;;;2.53;;
5343;SDS011;2694;48.950;8.970;2022-07-29T08:32:50;5.80;;;2.43;;
5343;SDS011;2694;48.950;8.970;2022-07-29T08:35:18;6.55;;;2.30;;
5343;SDS011;2694;48.950;8.970;2022-07-29T08:37:45;5.85;;;3.40;;
5343;SDS011;2694;48.950;8.970;2022-07-29T08:40:12;5.63;;;2.65;;
5343;SDS011;2694;48.950;8.970;2022-07-29T08:42:40;5.57;;;2.67;;
5343;SDS011;2694;48.950;8.970;2022-07-29T08:45:07;3.88;;;2.80;;
5343;SDS011;2694;48.950;8.970;2022-07-29T08:47:37;4.35;;;2.50;;
5343;SDS011;2694;48.950;8.970;2022-07-29T08:50:05;3.58;;;2.47;;
5343;SDS011;2694;48.950;8.970;2022-07-29T08:52:34;6.38;;;2.80;;
5343;SDS011;2694;48.950;8.970;2022-07-29T08:55:03;5.10;;;2.77;;
5343;SDS011;2694;48.950;8.970;2022-07-29T08:57:31;10.85;;;3.05;;
5343;SDS011;2694;48.950;8.970;2022-07-29T08:59:59;6.00;;;2.60;;
5343;SDS011;2694;48.950;8.970;2022-07-29T09:02:27;3.58;;;2.45;;
5343;SDS011;2694;48.950;8.970;2022-07-29T09:04:57;5.93;;;2.80;;
5343;SDS011;2694;48.950;8.970;2022-07-29T09:07:26;5.10;;;2.90;;
5343;SDS011;2694;48.950;8.970;2022-07-29T09:09:53;4.00;;;2.80;;
5343;SDS011;2694;48.950;8.970;2022-07-29T09:12:21;5.43;;;2.60;;
5343;SDS011;2694;48.950;8.970;2022-07-29T09:14:50;7.47;;;3.20;;
5343;SDS011;2694;48.950;8.970;2022-07-29T09:17:17;6.65;;;2.70;;
5343;SDS011;2694;48.950;8.970;2022-07-29T09:19:44;6.77;;;2.93;;
5343;SDS011;2694;48.950;8.970;2022-07-29T09:22:12;5.10;;;3.17;;
5343;SDS011;2694;48.950;8.970;2022-07-29T09:24:55;4.20;;;2.50;;
5343;SDS011;2694;48.950;8.970;2022-07-29T09:27:23;3.92;;;2.58;;
5343;SDS011;2694;48.950;8.970;2022-07-29T09:29:57;3.90;;;2.50;;
5343;SDS011;2694;48.950;8.970;2022-07-29T09:32:25;8.33;;;2.80;;
5343;SDS011;2694;48.950;8.970;2022-07-29T09:37:43;5.88;;;2.80;;
5343;SDS011;2694;48.950;8.970;2022-07-29T09:40:11;5.45;;;2.55;;
5343;SDS011;2694;48.950;8.970;2022-07-29T09:42:40;3.30;;;2.40;;
5343;SDS011;2694;48.950;8.970;2022-07-29T09:45:08;4.95;;;2.10;;
5343;SDS011;2694;48.950;8.970;2022-07-29T09:47:40;3.85;;;2.20;;
5343;SDS011;2694;48.950;8.970;2022-07-29T09:50:10;4.28;;;2.70;;
5343;SDS011;2694;48.950;8.970;2022-07-29T09:52:45;6.13;;;2.20;;
5343;SDS011;2694;48.950;8.970;2022-07-29T09:55:13;4.25;;;2.10;;
5343;SDS011;2694;48.950;8.970;2022-07-29T09:57:41;4.80;;;2.17;;
5343;SDS011;2694;48.950;8.970;2022-07-29T10:00:09;8.95;;;2.10;;
5343;SDS011;2694;48.950;8.970;2022-07-29T10:02:37;4.05;;;2.30;;
5343;SDS011;2694;48.950;8.970;2022-07-29T10:05:06;4.45;;;2.22;;
5343;SDS011;2694;48.950;8.970;2022-07-29T10:07:45;7.88;;;2.50;;
5343;SDS011;2694;48.950;8.970;2022-07-29T10:10:18;4.85;;;2.33;;
5343;SDS011;2694;48.950;8.970;2022-07-29T10:12:50;3.63;;;2.00;;
5343;SDS011;2694;48.950;8.970;2022-07-29T10:15:18;3.00;;;2.10;;
5343;SDS011;2694;48.950;8.970;2022-07-29T10:17:45;3.80;;;2.40;;
5343;SDS011;2694;48.950;8.970;2022-07-29T10:20:13;5.80;;;2.10;;
5343;SDS011;2694;48.950;8.970;2022-07-29T10:22:40;11.07;;;6.47;;
5343;SDS011;2694;48.950;8.970;2022-07-29T10:25:10;4.80;;;2.30;;
5343;SDS011;2694;48.950;8.970;2022-07-29T10:27:37;4.20;;;2.10;;
5343;SDS011;2694;48.950;8.970;2022-07-29T10:30:04;4.85;;;2.25;;
5343;SDS011;2694;48.950;8.970;2022-07-29T10:32:37;4.85;;;2.40;;
5343;SDS011;2694;48.950;8.970;2022-07-29T10:35:17;5.97;;;2.28;;
5343;SDS011;2694;48.950;8.970;2022-07-29T10:37:58;3.75;;;2.00;;
5343;SDS011;2694;48.950;8.970;2022-07-29T10:40:43;5.20;;;2.20;;
5343;SDS011;2694;48.950;8.970;2022-07-29T10:43:32;5.35;;;2.15;;
5343;SDS011;2694;48.950;8.970;2022-07-29T10:46:03;4.93;;;2.30;;
5343;SDS011;2694;48.950;8.970;2022-07-29T10:48:30;4.60;;;1.73;;
5343;SDS011;2694;48.950;8.970;2022-07-29T10:50:58;2.55;;;1.58;;
5343;SDS011;2694;48.950;8.970;2022-07-29T10:53:45;3.55;;;1.70;;
5343;SDS011;2694;48.950;8.970;2022-07-29T10:56:24;4.97;;;2.10;;
5343;SDS011;2694;48.950;8.970;2022-07-29T11:01:38;5.25;;;1.90;;
5343;SDS011;2694;48.950;8.970;2022-07-29T11:04:04;7.85;;;2.67;;
5343;SDS011;2694;48.950;8.970;2022-07-29T11:09:32;4.55;;;1.80;;
5343;SDS011;2694;48.950;8.970;2022-07-29T11:12:01;5.03;;;2.10;;
5343;SDS011;2694;48.950;8.970;2022-07-29T11:17:14;2.87;;;1.70;;
5343;SDS011;2694;48.950;8.970;2022-07-29T11:19:41;4.80;;;2.00;;
5343;SDS011;2694;48.950;8.970;2022-07-29T11:22:09;6.28;;;2.00;;
5343;SDS011;2694;48.950;8.970;2022-07-29T11:24:37;4.15;;;1.60;;
5343;SDS011;2694;48.950;8.970;2022-07-29T11:27:09;3.47;;;1.60;;
5343;SDS011;2694;48.950;8.970;2022-07-29T11:29:38;2.80;;;1.60;;
5343;SDS011;2694;48.950;8.970;2022-07-29T11:32:13;4.63;;;1.87;;
5343;SDS011;2694;48.950;8.970;2022-07-29T11:34:43;3.72;;;1.83;;
5343;SDS011;2694;48.950;8.970;2022-07-29T11:37:17;6.57;;;2.20;;
5343;SDS011;2694;48.950;8.970;2022-07-29T11:40:12;5.43;;;2.10;;
5343;SDS011;2694;48.950;8.970;2022-07-29T11:42:48;2.50;;;2.00;;
5343;SDS011;2694;48.950;8.970;2022-07-29T11:45:17;4.10;;;1.77;;
5343;SDS011;2694;48.950;8.970;2022-07-29T11:47:49;4.30;;;1.70;;
5343;SDS011;2694;48.950;8.970;2022-07-29T11:53:11;3.97;;;2.10;;
5343;SDS011;2694;48.950;8.970;2022-07-29T11:55:38;5.13;;;1.73;;
5343;SDS011;2694;48.950;8.970;2022-07-29T11:58:07;3.65;;;1.88;;
5343;SDS011;2694;48.950;8.970;2022-07-29T12:00:35;6.38;;;2.10;;
5343;SDS011;2694;48.950;8.970;2022-07-29T12:03:04;6.03;;;2.30;;
5343;SDS011;2694;48.950;8.970;2022-07-29T12:05:33;2.92;;;1.80;;
5343;SDS011;2694;48.950;8.970;2022-07-29T12:08:06;4.65;;;1.98;;
5343;SDS011;2694;48.950;8.970;2022-07-29T12:10:34;7.20;;;1.90;;
5343;SDS011;2694;48.950;8.970;2022-07-29T12:13:01;4.45;;;2.20;;
5343;SDS011;2694;48.950;8.970;2022-07-29T12:15:30;4.13;;;2.45;;
5343;SDS011;2694;48.950;8.970;2022-07-29T12:17:57;2.75;;;1.88;;
5343;SDS011;2694;48.950;8.970;2022-07-29T12:20:25;4.35;;;1.98;;
5343;SDS011;2694;48.950;8.970;2022-07-29T12:22:53;7.10;;;2.20;;
5343;SDS011;2694;48.950;8.970;2022-07-29T12:25:20;4.03;;;1.90;;
5343;SDS011;2694;48.950;8.970;2022-07-29T12:27:56;7.65;;;2.40;;
5343;SDS011;2694;48.950;8.970;2022-07-29T12:30:24;3.20;;;1.98;;
5343;SDS011;2694;48.950;8.970;2022-07-29T12:33:17;4.85;;;2.22;;
5343;SDS011;2694;48.950;8.970;2022-07-29T12:35:47;7.03;;;2.35;;
5343;SDS011;2694;48.950;8.970;2022-07-29T12:38:14;4.85;;;2.40;;
5343;SDS011;2694;48.950;8.970;2022-07-29T12:40:42;3.83;;;2.00;;
5343;SDS011;2694;48.950;8.970;2022-07-29T12:43:11;4.15;;;2.13;;
5343;SDS011;2694;48.950;8.970;2022-07-29T12:45:41;6.07;;;1.90;;
5343;SDS011;2694;48.950;8.970;2022-07-29T12:48:08;4.60;;;2.30;;
5343;SDS011;2694;48.950;8.970;2022-07-29T12:50:36;3.90;;;2.10;;
5343;SDS011;2694;48.950;8.970;2022-07-29T12:53:17;2.97;;;1.80;;
5343;SDS011;2694;48.950;8.970;2022-07-29T12:55:45;3.78;;;2.30;;
5343;SDS011;2694;48.950;8.970;2022-07-29T12:58:25;11.33;;;2.80;;
5343;SDS011;2694;48.950;8.970;2022-07-29T13:01:04;11.43;;;3.00;;
5343;SDS011;2694;48.950;8.970;2022-07-29T13:03:42;7.35;;;2.50;;
5343;SDS011;2694;48.950;8.970;2022-07-29T13:09:10;4.18;;;2.00;;
5343;SDS011;2694;48.950;8.970;2022-07-29T13:11:38;4.70;;;1.92;;
5343;SDS011;2694;48.950;8.970;2022-07-29T13:14:07;3.90;;;1.90;;
5343;SDS011;2694;48.950;8.970;2022-07-29T13:16:36;5.32;;;2.00;;
5343;SDS011;2694;48.950;8.970;2022-07-29T13:19:32;4.07;;;1.70;;
5343;SDS011;2694;48.950;8.970;2022-07-29T13:22:01;4.75;;;2.00;;
5343;SDS011;2694;48.950;8.970;2022-07-29T13:24:28;4.70;;;2.27;;
5343;SDS011;2694;48.950;8.970;2022-07-29T13:26:55;4.88;;;1.90;;
5343;SDS011;2694;48.950;8.970;2022-07-29T13:29:22;4.47;;;1.63;;
5343;SDS011;2694;48.950;8.970;2022-07-29T13:31:52;2.88;;;1.60;;
5343;SDS011;2694;48.950;8.970;2022-07-29T13:34:20;4.40;;;1.60;;
5343;SDS011;2694;48.950;8.970;2022-07-29T13:36:49;5.70;;;1.90;;
5343;SDS011;2694;48.950;8.970;2022-07-29T13:39:15;5.28;;;2.10;;
5343;SDS011;2694;48.950;8.970;2022-07-29T13:41:42;3.63;;;1.92;;
5343;SDS011;2694;48.950;8.970;2022-07-29T13:44:09;6.38;;;1.63;;
5343;SDS011;2694;48.950;8.970;2022-07-29T13:46:36;3.42;;;1.50;;
5343;SDS011;2694;48.950;8.970;2022-07-29T13:49:04;2.23;;;1.70;;
5343;SDS011;2694;48.950;8.970;2022-07-29T13:51:31;2.63;;;1.47;;
5343;SDS011;2694;48.950;8.970;2022-07-29T13:53:57;4.60;;;1.40;;
5343;SDS011;2694;48.950;8.970;2022-07-29T13:56:24;4.28;;;1.52;;
5343;SDS011;2694;48.950;8.970;2022-07-29T13:58:51;5.80;;;1.90;;
5343;SDS011;2694;48.950;8.970;2022-07-29T14:01:18;3.60;;;1.50;;
5343;SDS011;2694;48.950;8.970;2022-07-29T14:03:44;2.33;;;1.70;;
5343;SDS011;2694;48.950;8.970;2022-07-29T14:06:12;4.00;;;1.88;;
5343;SDS011;2694;48.950;8.970;2022-07-29T14:08:39;5.20;;;1.80;;
5343;SDS011;2694;48.950;8.970;2022-07-29T14:11:06;1.90;;;1.53;;
5343;SDS011;2694;48.950;8.970;2022-07-29T14:13:33;4.50;;;1.60;;
5343;SDS011;2694;48.950;8.970;2022-07-29T14:16:00;2.10;;;1.40;;
5343;SDS011;2694;48.950;8.970;2022-07-29T14:18:27;3.65;;;1.70;;
5343;SDS011;2694;48.950;8.970;2022-07-29T14:20:53;5.60;;;1.80;;
5343;SDS011;2694;48.950;8.970;2022-07-29T14:23:22;2.70;;;1.40;;
5343;SDS011;2694;48.950;8.970;2022-07-29T14:25:49;3.90;;;1.60;;
5343;SDS011;2694;48.950;8.970;2022-07-29T14:28:16;7.53;;;1.60;;
5343;SDS011;2694;48.950;8.970;2022-07-29T14:30:42;3.17;;;1.60;;
5343;SDS011;2694;48.950;8.970;2022-07-29T14:33:10;2.70;;;1.30;;
5343;SDS011;2694;48.950;8.970;2022-07-29T14:35:37;8.13;;;1.40;;
5343;SDS011;2694;48.950;8.970;2022-07-29T14:38:04;5.20;;;1.45;;
5343;SDS011;2694;48.950;8.970;2022-07-29T14:40:32;5.68;;;1.85;;
5343;SDS011;2694;48.950;8.970;2022-07-29T14:42:59;3.60;;;1.40;;
5343;SDS011;2694;48.950;8.970;2022-07-29T14:45:26;6.60;;;1.30;;
5343;SDS011;2694;48.950;8.970;2022-07-29T14:47:54;2.00;;;1.50;;
5343;SDS011;2694;48.950;8.970;2022-07-29T14:50:21;2.78;;;1.30;;
5343;SDS011;2694;48.950;8.970;2022-07-29T14:52:47;2.90;;;1.30;;
5343;SDS011;2694;48.950;8.970;2022-07-29T14:55:14;4.20;;;1.40;;
5343;SDS011;2694;48.950;8.970;2022-07-29T14:57:42;3.78;;;1.30;;
5343;SDS011;2694;48.950;8.970;2022-07-29T15:00:09;2.05;;;1.25;;
5343;SDS011;2694;48.950;8.970;2022-07-29T15:02:37;6.35;;;1.50;;
5343;SDS011;2694;48.950;8.970;2022-07-29T15:05:04;3.72;;;1.00;;
5343;SDS011;2694;48.950;8.970;2022-07-29T15:07:31;3.90;;;1.20;;
5343;SDS011;2694;48.950;8.970;2022-07-29T15:09:58;3.65;;;1.40;;
5343;SDS011;2694;48.950;8.970;2022-07-29T15:12:25;2.70;;;1.23;;
5343;SDS011;2694;48.950;8.970;2022-07-29T15:14:53;3.75;;;1.40;;
5343;SDS011;2694;48.950;8.970;2022-07-29T15:17:20;2.20;;;1.10;;
5343;SDS011;2694;48.950;8.970;2022-07-29T15:19:47;7.00;;;1.20;;
5343;SDS011;2694;48.950;8.970;2022-07-29T15:22:14;1.95;;;1.20;;
5343;SDS011;2694;48.950;8.970;2022-07-29T15:24:41;5.27;;;1.50;;
5343;SDS011;2694;48.950;8.970;2022-07-29T15:27:09;4.45;;;1.20;;
5343;SDS011;2694;48.950;8.970;2022-07-29T15:29:39;2.22;;;1.20;;
5343;SDS011;2694;48.950;8.970;2022-07-29T15:32:07;4.25;;;1.30;;
5343;SDS011;2694;48.950;8.970;2022-07-29T15:34:34;5.40;;;1.30;;
5343;SDS011;2694;48.950;8.970;2022-07-29T15:37:02;4.68;;;1.25;;
5343;SDS011;2694;48.950;8.970;2022-07-29T15:39:29;2.70;;;1.05;;
5343;SDS011;2694;48.950;8.970;2022-07-29T15:41:55;3.08;;;1.23;;